sensor_id;sensor_type;location;lat;lon;timestamp;P1;durP1;ratioP1;P2;durP2;ratioP2
7471;SDS011;3777;48.722;8.110;2022-09-09T00:00:46;5.60;;;2.30;;
7471;SDS011;3777;48.722;8.110;2022-09-09T00:03:15;4.90;;;2.17;;
7471;SDS011;3777;48.722;8.110;2022-09-09T00:05:47;5.87;;;2.40;;
7471;SDS011;3777;48.722;8.110;2022-09-09T00:08:25;4.83;;;1.90;;
7471;SDS011;3777;48.722;8.110;2022-09-09T00:10:59;3.60;;;1.83;;
7471;SDS011;3777;48.722;8.110;2022-09-09T00:13:31;4.43;;;2.10;;
7471;SDS011;3777;48.722;8.110;2022-09-09T00:16:04;4.43;;;1.90;;
7471;SDS011;3777;48.722;8.110;2022-09-09T00:18:45;4.37;;;2.03;;
7471;SDS011;3777;48.722;8.110;2022-09-09T00:21:18;4.40;;;1.80;;
7471;SDS011;3777;48.722;8.110;2022-09-09T00:23:48;3.67;;;1.93;;
7471;SDS011;3777;48.722;8.110;2022-09-09T00:26:19;4.87;;;1.77;;
7471;SDS011;3777;48.722;8.110;2022-09-09T00:28:57;4.97;;;1.87;;
7471;SDS011;3777;48.722;8.110;2022-09-09T00:31:31;4.57;;;1.90;;
7471;SDS011;3777;48.722;8.110;2022-09-09T00:33:59;6.27;;;2.40;;
7471;SDS011;3777;48.722;8.110;2022-09-09T00:36:31;4.63;;;1.90;;
7471;SDS011;3777;48.722;8.110;2022-09-09T00:39:01;3.57;;;1.80;;
7471;SDS011;3777;48.722;8.110;2022-09-09T00:41:31;4.30;;;2.00;;
7471;SDS011;3777;48.722;8.110;2022-09-09T00:44:13;5.57;;;1.97;;
7471;SDS011;3777;48.722;8.110;2022-09-09T00:46:51;5.23;;;1.70;;
7471;SDS011;3777;48.722;8.110;2022-09-09T00:49:25;7.03;;;2.20;;
7471;SDS011;3777;48.722;8.110;2022-09-09T00:52:05;6.90;;;2.30;;
7471;SDS011;3777;48.722;8.110;2022-09-09T00:54:47;6.30;;;2.33;;
7471;SDS011;3777;48.722;8.110;2022-09-09T00:57:23;6.97;;;1.60;;
7471;SDS011;3777;48.722;8.110;2022-09-09T00:59:56;6.27;;;1.70;;
7471;SDS011;3777;48.722;8.110;2022-09-09T01:02:43;4.87;;;1.80;;
7471;SDS011;3777;48.722;8.110;2022-09-09T01:05:29;6.77;;;2.00;;
7471;SDS011;3777;48.722;8.110;2022-09-09T01:08:01;4.23;;;1.90;;
7471;SDS011;3777;48.722;8.110;2022-09-09T01:10:38;4.40;;;1.70;;
7471;SDS011;3777;48.722;8.110;2022-09-09T01:13:11;6.17;;;1.70;;
7471;SDS011;3777;48.722;8.110;2022-09-09T01:15:43;6.00;;;1.97;;
7471;SDS011;3777;48.722;8.110;2022-09-09T01:18:13;5.13;;;1.67;;
7471;SDS011;3777;48.722;8.110;2022-09-09T01:20:44;2.70;;;1.60;;
7471;SDS011;3777;48.722;8.110;2022-09-09T01:26:14;5.67;;;1.90;;
7471;SDS011;3777;48.722;8.110;2022-09-09T01:28:44;4.77;;;1.60;;
7471;SDS011;3777;48.722;8.110;2022-09-09T01:31:15;4.20;;;1.70;;
7471;SDS011;3777;48.722;8.110;2022-09-09T01:33:45;3.70;;;1.90;;
7471;SDS011;3777;48.722;8.110;2022-09-09T01:36:13;5.10;;;2.37;;
7471;SDS011;3777;48.722;8.110;2022-09-09T01:38:47;2.73;;;1.80;;
7471;SDS011;3777;48.722;8.110;2022-09-09T01:41:16;4.73;;;1.80;;
7471;SDS011;3777;48.722;8.110;2022-09-09T01:43:43;5.27;;;1.80;;
7471;SDS011;3777;48.722;8.110;2022-09-09T01:46:10;5.57;;;2.20;;
7471;SDS011;3777;48.722;8.110;2022-09-09T01:48:38;7.00;;;1.90;;
7471;SDS011;3777;48.722;8.110;2022-09-09T01:51:07;6.00;;;2.10;;
7471;SDS011;3777;48.722;8.110;2022-09-09T01:53:35;3.50;;;1.87;;
7471;SDS011;3777;48.722;8.110;2022-09-09T01:56:07;3.07;;;2.10;;
7471;SDS011;3777;48.722;8.110;2022-09-09T01:58:45;10.43;;;1.90;;
7471;SDS011;3777;48.722;8.110;2022-09-09T02:01:25;4.77;;;1.60;;
7471;SDS011;3777;48.722;8.110;2022-09-09T02:03:57;2.33;;;1.80;;
7471;SDS011;3777;48.722;8.110;2022-09-09T02:06:30;5.03;;;1.90;;
7471;SDS011;3777;48.722;8.110;2022-09-09T02:09:03;5.30;;;1.80;;
7471;SDS011;3777;48.722;8.110;2022-09-09T02:11:31;4.57;;;1.60;;
7471;SDS011;3777;48.722;8.110;2022-09-09T02:14:01;3.43;;;1.70;;
7471;SDS011;3777;48.722;8.110;2022-09-09T02:16:33;1.67;;;1.50;;
7471;SDS011;3777;48.722;8.110;2022-09-09T02:19:06;4.03;;;2.00;;
7471;SDS011;3777;48.722;8.110;2022-09-09T02:21:38;3.33;;;2.10;;
7471;SDS011;3777;48.722;8.110;2022-09-09T02:24:06;3.00;;;1.80;;
7471;SDS011;3777;48.722;8.110;2022-09-09T02:26:36;4.07;;;1.90;;
7471;SDS011;3777;48.722;8.110;2022-09-09T02:29:08;3.33;;;1.70;;
7471;SDS011;3777;48.722;8.110;2022-09-09T02:31:38;2.83;;;1.67;;
7471;SDS011;3777;48.722;8.110;2022-09-09T02:34:08;3.90;;;1.90;;
7471;SDS011;3777;48.722;8.110;2022-09-09T02:36:37;3.60;;;2.00;;
7471;SDS011;3777;48.722;8.110;2022-09-09T02:39:07;2.17;;;1.57;;
7471;SDS011;3777;48.722;8.110;2022-09-09T02:41:37;5.27;;;2.00;;
7471;SDS011;3777;48.722;8.110;2022-09-09T02:44:05;3.67;;;1.87;;
7471;SDS011;3777;48.722;8.110;2022-09-09T02:49:41;3.90;;;2.20;;
7471;SDS011;3777;48.722;8.110;2022-09-09T02:52:15;3.73;;;2.00;;
7471;SDS011;3777;48.722;8.110;2022-09-09T02:54:44;2.80;;;1.73;;
7471;SDS011;3777;48.722;8.110;2022-09-09T02:57:13;3.87;;;1.70;;
7471;SDS011;3777;48.722;8.110;2022-09-09T02:59:46;3.47;;;1.50;;
7471;SDS011;3777;48.722;8.110;2022-09-09T03:02:14;5.13;;;1.60;;
7471;SDS011;3777;48.722;8.110;2022-09-09T03:04:43;1.60;;;1.40;;
7471;SDS011;3777;48.722;8.110;2022-09-09T03:07:15;2.63;;;1.63;;
7471;SDS011;3777;48.722;8.110;2022-09-09T03:09:42;2.17;;;1.20;;
7471;SDS011;3777;48.722;8.110;2022-09-09T03:12:09;3.60;;;1.57;;
7471;SDS011;3777;48.722;8.110;2022-09-09T03:14:37;4.10;;;1.40;;
7471;SDS011;3777;48.722;8.110;2022-09-09T03:17:05;2.90;;;1.30;;
7471;SDS011;3777;48.722;8.110;2022-09-09T03:19:34;6.57;;;1.60;;
7471;SDS011;3777;48.722;8.110;2022-09-09T03:22:02;3.13;;;1.20;;
7471;SDS011;3777;48.722;8.110;2022-09-09T03:24:30;4.93;;;1.50;;
7471;SDS011;3777;48.722;8.110;2022-09-09T03:26:57;2.77;;;1.47;;
7471;SDS011;3777;48.722;8.110;2022-09-09T03:29:24;3.03;;;1.30;;
7471;SDS011;3777;48.722;8.110;2022-09-09T03:31:51;2.50;;;1.23;;
7471;SDS011;3777;48.722;8.110;2022-09-09T03:34:19;4.47;;;1.40;;
7471;SDS011;3777;48.722;8.110;2022-09-09T03:36:46;3.60;;;1.30;;
7471;SDS011;3777;48.722;8.110;2022-09-09T03:39:13;2.30;;;1.40;;
7471;SDS011;3777;48.722;8.110;2022-09-09T03:41:40;2.73;;;1.40;;
7471;SDS011;3777;48.722;8.110;2022-09-09T03:44:10;3.10;;;1.40;;
7471;SDS011;3777;48.722;8.110;2022-09-09T03:46:37;3.50;;;1.50;;
7471;SDS011;3777;48.722;8.110;2022-09-09T03:49:04;2.23;;;1.30;;
7471;SDS011;3777;48.722;8.110;2022-09-09T03:51:32;3.70;;;1.20;;
7471;SDS011;3777;48.722;8.110;2022-09-09T03:54:01;3.73;;;1.23;;
7471;SDS011;3777;48.722;8.110;2022-09-09T03:56:30;3.13;;;1.40;;
7471;SDS011;3777;48.722;8.110;2022-09-09T03:58:57;2.87;;;1.30;;
7471;SDS011;3777;48.722;8.110;2022-09-09T04:01:24;3.87;;;1.60;;
7471;SDS011;3777;48.722;8.110;2022-09-09T04:03:51;3.73;;;1.30;;
7471;SDS011;3777;48.722;8.110;2022-09-09T04:06:18;3.00;;;1.20;;
7471;SDS011;3777;48.722;8.110;2022-09-09T04:08:47;3.20;;;1.50;;
7471;SDS011;3777;48.722;8.110;2022-09-09T04:11:14;2.47;;;1.40;;
7471;SDS011;3777;48.722;8.110;2022-09-09T04:13:41;3.73;;;1.53;;
7471;SDS011;3777;48.722;8.110;2022-09-09T04:16:10;3.03;;;1.30;;
7471;SDS011;3777;48.722;8.110;2022-09-09T04:18:38;3.57;;;1.40;;
7471;SDS011;3777;48.722;8.110;2022-09-09T04:21:05;3.47;;;1.40;;
7471;SDS011;3777;48.722;8.110;2022-09-09T04:23:33;3.00;;;1.40;;
7471;SDS011;3777;48.722;8.110;2022-09-09T04:26:02;2.40;;;1.30;;
7471;SDS011;3777;48.722;8.110;2022-09-09T04:28:31;3.07;;;1.40;;
7471;SDS011;3777;48.722;8.110;2022-09-09T04:31:03;4.93;;;1.60;;
7471;SDS011;3777;48.722;8.110;2022-09-09T04:33:31;5.63;;;1.60;;
7471;SDS011;3777;48.722;8.110;2022-09-09T04:35:58;3.30;;;1.50;;
7471;SDS011;3777;48.722;8.110;2022-09-09T04:38:25;1.70;;;1.30;;
7471;SDS011;3777;48.722;8.110;2022-09-09T04:40:52;5.03;;;1.60;;
7471;SDS011;3777;48.722;8.110;2022-09-09T04:43:21;2.47;;;1.40;;
7471;SDS011;3777;48.722;8.110;2022-09-09T04:45:50;2.03;;;1.40;;
7471;SDS011;3777;48.722;8.110;2022-09-09T04:48:17;4.50;;;1.50;;
7471;SDS011;3777;48.722;8.110;2022-09-09T04:50:53;4.13;;;1.70;;
7471;SDS011;3777;48.722;8.110;2022-09-09T04:53:20;4.03;;;1.60;;
7471;SDS011;3777;48.722;8.110;2022-09-09T04:55:47;4.53;;;1.47;;
7471;SDS011;3777;48.722;8.110;2022-09-09T04:58:14;3.10;;;1.50;;
7471;SDS011;3777;48.722;8.110;2022-09-09T05:00:43;2.40;;;1.20;;
7471;SDS011;3777;48.722;8.110;2022-09-09T05:03:11;2.83;;;1.30;;
7471;SDS011;3777;48.722;8.110;2022-09-09T05:05:38;6.70;;;1.60;;
7471;SDS011;3777;48.722;8.110;2022-09-09T05:08:06;2.87;;;1.40;;
7471;SDS011;3777;48.722;8.110;2022-09-09T05:10:36;5.00;;;1.50;;
7471;SDS011;3777;48.722;8.110;2022-09-09T05:13:04;4.10;;;1.50;;
7471;SDS011;3777;48.722;8.110;2022-09-09T05:15:31;4.07;;;1.40;;
7471;SDS011;3777;48.722;8.110;2022-09-09T05:18:00;3.20;;;1.30;;
7471;SDS011;3777;48.722;8.110;2022-09-09T05:20:28;2.27;;;1.43;;
7471;SDS011;3777;48.722;8.110;2022-09-09T05:22:55;2.33;;;1.50;;
7471;SDS011;3777;48.722;8.110;2022-09-09T05:25:23;3.07;;;1.30;;
7471;SDS011;3777;48.722;8.110;2022-09-09T05:27:51;2.57;;;1.50;;
7471;SDS011;3777;48.722;8.110;2022-09-09T05:30:18;1.63;;;1.40;;
7471;SDS011;3777;48.722;8.110;2022-09-09T05:32:45;2.33;;;1.50;;
7471;SDS011;3777;48.722;8.110;2022-09-09T05:35:15;2.17;;;1.57;;
7471;SDS011;3777;48.722;8.110;2022-09-09T05:37:44;2.60;;;1.33;;
7471;SDS011;3777;48.722;8.110;2022-09-09T05:40:11;1.60;;;1.30;;
7471;SDS011;3777;48.722;8.110;2022-09-09T05:42:38;5.03;;;1.50;;
7471;SDS011;3777;48.722;8.110;2022-09-09T05:45:06;2.67;;;1.57;;
7471;SDS011;3777;48.722;8.110;2022-09-09T05:47:33;2.40;;;1.40;;
7471;SDS011;3777;48.722;8.110;2022-09-09T05:50:02;1.97;;;1.30;;
7471;SDS011;3777;48.722;8.110;2022-09-09T05:52:31;4.37;;;1.60;;
7471;SDS011;3777;48.722;8.110;2022-09-09T05:54:58;3.63;;;1.50;;
7471;SDS011;3777;48.722;8.110;2022-09-09T05:57:25;2.30;;;1.50;;
7471;SDS011;3777;48.722;8.110;2022-09-09T05:59:52;2.50;;;1.60;;
7471;SDS011;3777;48.722;8.110;2022-09-09T06:02:19;3.07;;;1.77;;
7471;SDS011;3777;48.722;8.110;2022-09-09T06:04:46;4.00;;;1.70;;
7471;SDS011;3777;48.722;8.110;2022-09-09T06:07:13;3.03;;;1.83;;
7471;SDS011;3777;48.722;8.110;2022-09-09T06:09:42;3.23;;;1.67;;
7471;SDS011;3777;48.722;8.110;2022-09-09T06:12:08;2.87;;;1.70;;
7471;SDS011;3777;48.722;8.110;2022-09-09T06:14:35;4.57;;;1.60;;
7471;SDS011;3777;48.722;8.110;2022-09-09T06:17:03;3.17;;;1.60;;
7471;SDS011;3777;48.722;8.110;2022-09-09T06:19:30;3.57;;;1.57;;
7471;SDS011;3777;48.722;8.110;2022-09-09T06:21:57;5.67;;;1.87;;
7471;SDS011;3777;48.722;8.110;2022-09-09T06:24:24;2.13;;;1.53;;
7471;SDS011;3777;48.722;8.110;2022-09-09T06:26:53;2.23;;;1.60;;
7471;SDS011;3777;48.722;8.110;2022-09-09T06:29:20;2.50;;;1.70;;
7471;SDS011;3777;48.722;8.110;2022-09-09T06:31:47;2.27;;;1.60;;
7471;SDS011;3777;48.722;8.110;2022-09-09T06:34:13;3.33;;;1.87;;
7471;SDS011;3777;48.722;8.110;2022-09-09T06:36:41;6.40;;;1.87;;
7471;SDS011;3777;48.722;8.110;2022-09-09T06:39:08;3.63;;;1.80;;
7471;SDS011;3777;48.722;8.110;2022-09-09T06:41:36;4.17;;;1.70;;
7471;SDS011;3777;48.722;8.110;2022-09-09T06:44:05;5.10;;;2.13;;
7471;SDS011;3777;48.722;8.110;2022-09-09T06:46:32;3.60;;;1.70;;
7471;SDS011;3777;48.722;8.110;2022-09-09T06:49:00;3.50;;;1.70;;
7471;SDS011;3777;48.722;8.110;2022-09-09T06:51:28;3.10;;;1.63;;
7471;SDS011;3777;48.722;8.110;2022-09-09T06:53:56;7.07;;;2.10;;
7471;SDS011;3777;48.722;8.110;2022-09-09T06:56:26;2.53;;;1.60;;
7471;SDS011;3777;48.722;8.110;2022-09-09T06:58:55;4.13;;;1.83;;
7471;SDS011;3777;48.722;8.110;2022-09-09T07:01:25;4.03;;;1.80;;
7471;SDS011;3777;48.722;8.110;2022-09-09T07:03:54;4.20;;;1.50;;
7471;SDS011;3777;48.722;8.110;2022-09-09T07:06:24;2.47;;;1.70;;
7471;SDS011;3777;48.722;8.110;2022-09-09T07:08:53;4.20;;;1.63;;
7471;SDS011;3777;48.722;8.110;2022-09-09T07:11:21;2.00;;;1.40;;
7471;SDS011;3777;48.722;8.110;2022-09-09T07:13:50;2.53;;;1.50;;
7471;SDS011;3777;48.722;8.110;2022-09-09T07:16:18;3.53;;;1.67;;
7471;SDS011;3777;48.722;8.110;2022-09-09T07:18:49;4.27;;;1.67;;
7471;SDS011;3777;48.722;8.110;2022-09-09T07:21:16;4.47;;;2.00;;
7471;SDS011;3777;48.722;8.110;2022-09-09T07:23:44;3.30;;;1.70;;
7471;SDS011;3777;48.722;8.110;2022-09-09T07:26:11;3.47;;;1.60;;
7471;SDS011;3777;48.722;8.110;2022-09-09T07:28:40;3.23;;;1.50;;
7471;SDS011;3777;48.722;8.110;2022-09-09T07:31:12;3.43;;;1.90;;
7471;SDS011;3777;48.722;8.110;2022-09-09T07:33:41;2.63;;;1.63;;
7471;SDS011;3777;48.722;8.110;2022-09-09T07:36:12;3.03;;;1.60;;
7471;SDS011;3777;48.722;8.110;2022-09-09T07:38:40;5.53;;;1.67;;
7471;SDS011;3777;48.722;8.110;2022-09-09T07:41:11;4.77;;;1.73;;
7471;SDS011;3777;48.722;8.110;2022-09-09T07:43:40;4.97;;;1.83;;
7471;SDS011;3777;48.722;8.110;2022-09-09T07:46:08;3.30;;;1.60;;
7471;SDS011;3777;48.722;8.110;2022-09-09T07:48:37;4.17;;;1.83;;
7471;SDS011;3777;48.722;8.110;2022-09-09T07:51:08;4.13;;;1.57;;
7471;SDS011;3777;48.722;8.110;2022-09-09T07:53:38;3.90;;;1.67;;
7471;SDS011;3777;48.722;8.110;2022-09-09T07:56:05;4.93;;;1.73;;
7471;SDS011;3777;48.722;8.110;2022-09-09T07:58:34;5.83;;;2.03;;
7471;SDS011;3777;48.722;8.110;2022-09-09T08:01:05;5.03;;;1.70;;
7471;SDS011;3777;48.722;8.110;2022-09-09T08:03:34;6.33;;;1.70;;
7471;SDS011;3777;48.722;8.110;2022-09-09T08:06:02;8.33;;;2.03;;
7471;SDS011;3777;48.722;8.110;2022-09-09T08:08:29;6.22;;;1.73;;
7471;SDS011;3777;48.722;8.110;2022-09-09T08:11:05;8.80;;;2.10;;
7471;SDS011;3777;48.722;8.110;2022-09-09T08:13:34;5.32;;;2.05;;
7471;SDS011;3777;48.722;8.110;2022-09-09T08:16:05;3.95;;;1.40;;
7471;SDS011;3777;48.722;8.110;2022-09-09T08:18:33;5.60;;;1.60;;
7471;SDS011;3777;48.722;8.110;2022-09-09T08:21:07;4.63;;;1.65;;
7471;SDS011;3777;48.722;8.110;2022-09-09T08:23:37;4.93;;;1.80;;
7471;SDS011;3777;48.722;8.110;2022-09-09T08:26:06;3.67;;;1.60;;
7471;SDS011;3777;48.722;8.110;2022-09-09T08:28:36;5.47;;;1.73;;
7471;SDS011;3777;48.722;8.110;2022-09-09T08:31:05;5.43;;;1.63;;
7471;SDS011;3777;48.722;8.110;2022-09-09T08:33:37;3.55;;;1.40;;
7471;SDS011;3777;48.722;8.110;2022-09-09T08:36:05;3.50;;;1.60;;
7471;SDS011;3777;48.722;8.110;2022-09-09T08:38:34;6.05;;;1.73;;
7471;SDS011;3777;48.722;8.110;2022-09-09T08:44:07;4.45;;;1.52;;
7471;SDS011;3777;48.722;8.110;2022-09-09T08:46:42;3.58;;;1.90;;
7471;SDS011;3777;48.722;8.110;2022-09-09T08:49:20;3.10;;;1.52;;
7471;SDS011;3777;48.722;8.110;2022-09-09T08:51:59;4.93;;;1.70;;
7471;SDS011;3777;48.722;8.110;2022-09-09T08:54:28;3.55;;;1.77;;
7471;SDS011;3777;48.722;8.110;2022-09-09T08:56:59;3.80;;;1.77;;
7471;SDS011;3777;48.722;8.110;2022-09-09T08:59:28;4.50;;;1.67;;
7471;SDS011;3777;48.722;8.110;2022-09-09T09:01:57;4.28;;;1.70;;
7471;SDS011;3777;48.722;8.110;2022-09-09T09:04:46;4.05;;;1.70;;
7471;SDS011;3777;48.722;8.110;2022-09-09T09:07:28;5.05;;;1.80;;
7471;SDS011;3777;48.722;8.110;2022-09-09T09:10:03;5.65;;;1.70;;
7471;SDS011;3777;48.722;8.110;2022-09-09T09:15:14;7.35;;;1.67;;
7471;SDS011;3777;48.722;8.110;2022-09-09T09:17:46;5.03;;;1.75;;
7471;SDS011;3777;48.722;8.110;2022-09-09T09:20:14;3.80;;;1.52;;
7471;SDS011;3777;48.722;8.110;2022-09-09T09:22:44;6.47;;;1.63;;
7471;SDS011;3777;48.722;8.110;2022-09-09T09:25:16;3.35;;;1.60;;
7471;SDS011;3777;48.722;8.110;2022-09-09T09:27:47;4.68;;;1.80;;
7471;SDS011;3777;48.722;8.110;2022-09-09T09:30:21;8.35;;;1.70;;
7471;SDS011;3777;48.722;8.110;2022-09-09T09:32:51;4.00;;;1.70;;
7471;SDS011;3777;48.722;8.110;2022-09-09T09:35:21;10.35;;;1.85;;
7471;SDS011;3777;48.722;8.110;2022-09-09T09:37:48;4.45;;;1.55;;
7471;SDS011;3777;48.722;8.110;2022-09-09T09:40:16;7.63;;;1.88;;
7471;SDS011;3777;48.722;8.110;2022-09-09T09:42:49;4.78;;;1.60;;
7471;SDS011;3777;48.722;8.110;2022-09-09T09:45:20;6.55;;;1.67;;
7471;SDS011;3777;48.722;8.110;2022-09-09T09:47:58;6.25;;;1.88;;
7471;SDS011;3777;48.722;8.110;2022-09-09T09:50:27;5.05;;;1.70;;
7471;SDS011;3777;48.722;8.110;2022-09-09T09:52:54;3.03;;;1.75;;
7471;SDS011;3777;48.722;8.110;2022-09-09T09:55:23;5.47;;;1.83;;
7471;SDS011;3777;48.722;8.110;2022-09-09T09:57:52;5.70;;;2.03;;
7471;SDS011;3777;48.722;8.110;2022-09-09T10:00:20;4.28;;;1.77;;
7471;SDS011;3777;48.722;8.110;2022-09-09T10:02:50;6.22;;;1.77;;
7471;SDS011;3777;48.722;8.110;2022-09-09T10:05:19;3.97;;;1.65;;
7471;SDS011;3777;48.722;8.110;2022-09-09T10:07:47;4.15;;;1.60;;
7471;SDS011;3777;48.722;8.110;2022-09-09T10:10:29;3.65;;;1.50;;
7471;SDS011;3777;48.722;8.110;2022-09-09T10:13:05;4.10;;;1.60;;
7471;SDS011;3777;48.722;8.110;2022-09-09T10:15:39;2.58;;;1.50;;
7471;SDS011;3777;48.722;8.110;2022-09-09T10:18:20;3.33;;;1.70;;
7471;SDS011;3777;48.722;8.110;2022-09-09T10:21:03;7.72;;;1.95;;
7471;SDS011;3777;48.722;8.110;2022-09-09T10:23:46;5.03;;;1.70;;
7471;SDS011;3777;48.722;8.110;2022-09-09T10:26:32;4.53;;;1.60;;
7471;SDS011;3777;48.722;8.110;2022-09-09T10:29:16;6.43;;;1.60;;
7471;SDS011;3777;48.722;8.110;2022-09-09T10:31:52;4.70;;;1.45;;
7471;SDS011;3777;48.722;8.110;2022-09-09T10:34:35;4.75;;;1.70;;
7471;SDS011;3777;48.722;8.110;2022-09-09T10:37:16;5.78;;;1.95;;
7471;SDS011;3777;48.722;8.110;2022-09-09T10:39:56;3.92;;;1.83;;
7471;SDS011;3777;48.722;8.110;2022-09-09T10:42:32;4.05;;;1.77;;
7471;SDS011;3777;48.722;8.110;2022-09-09T10:45:02;4.10;;;1.75;;
7471;SDS011;3777;48.722;8.110;2022-09-09T10:47:46;3.42;;;1.40;;
7471;SDS011;3777;48.722;8.110;2022-09-09T10:50:47;2.45;;;1.30;;
7471;SDS011;3777;48.722;8.110;2022-09-09T10:53:22;2.88;;;1.25;;
7471;SDS011;3777;48.722;8.110;2022-09-09T10:55:56;3.28;;;1.25;;
7471;SDS011;3777;48.722;8.110;2022-09-09T10:58:28;3.13;;;1.35;;
7471;SDS011;3777;48.722;8.110;2022-09-09T11:01:02;4.53;;;1.42;;
7471;SDS011;3777;48.722;8.110;2022-09-09T11:03:36;3.92;;;1.33;;
7471;SDS011;3777;48.722;8.110;2022-09-09T11:06:09;3.58;;;1.45;;
7471;SDS011;3777;48.722;8.110;2022-09-09T11:08:39;4.03;;;1.65;;
7471;SDS011;3777;48.722;8.110;2022-09-09T11:11:09;4.47;;;1.40;;
7471;SDS011;3777;48.722;8.110;2022-09-09T11:13:42;3.85;;;1.60;;
7471;SDS011;3777;48.722;8.110;2022-09-09T11:16:17;2.97;;;1.30;;
7471;SDS011;3777;48.722;8.110;2022-09-09T11:18:50;4.85;;;1.30;;
7471;SDS011;3777;48.722;8.110;2022-09-09T11:21:26;3.03;;;1.50;;
7471;SDS011;3777;48.722;8.110;2022-09-09T11:23:58;1.80;;;1.15;;
7471;SDS011;3777;48.722;8.110;2022-09-09T11:26:30;4.53;;;1.38;;
7471;SDS011;3777;48.722;8.110;2022-09-09T11:29:09;5.93;;;1.38;;
7471;SDS011;3777;48.722;8.110;2022-09-09T11:31:52;2.63;;;1.13;;
7471;SDS011;3777;48.722;8.110;2022-09-09T11:34:34;4.13;;;1.30;;
7471;SDS011;3777;48.722;8.110;2022-09-09T11:37:16;2.80;;;1.23;;
7471;SDS011;3777;48.722;8.110;2022-09-09T11:39:58;3.85;;;1.27;;
7471;SDS011;3777;48.722;8.110;2022-09-09T11:42:45;4.35;;;1.60;;
7471;SDS011;3777;48.722;8.110;2022-09-09T11:45:22;2.25;;;1.20;;
7471;SDS011;3777;48.722;8.110;2022-09-09T11:47:54;4.45;;;1.48;;
7471;SDS011;3777;48.722;8.110;2022-09-09T11:50:32;5.45;;;1.30;;
7471;SDS011;3777;48.722;8.110;2022-09-09T11:56:03;3.80;;;1.38;;
7471;SDS011;3777;48.722;8.110;2022-09-09T11:58:43;2.47;;;1.15;;
7471;SDS011;3777;48.722;8.110;2022-09-09T12:01:29;4.88;;;1.30;;
7471;SDS011;3777;48.722;8.110;2022-09-09T12:04:05;2.72;;;1.23;;
7471;SDS011;3777;48.722;8.110;2022-09-09T12:06:41;3.60;;;1.30;;
7471;SDS011;3777;48.722;8.110;2022-09-09T12:09:16;5.55;;;1.20;;
7471;SDS011;3777;48.722;8.110;2022-09-09T12:11:49;2.95;;;1.40;;
7471;SDS011;3777;48.722;8.110;2022-09-09T12:14:20;5.05;;;1.40;;
7471;SDS011;3777;48.722;8.110;2022-09-09T12:16:48;4.18;;;1.58;;
7471;SDS011;3777;48.722;8.110;2022-09-09T12:19:16;4.78;;;1.33;;
7471;SDS011;3777;48.722;8.110;2022-09-09T12:21:49;3.72;;;1.60;;
7471;SDS011;3777;48.722;8.110;2022-09-09T12:24:27;5.00;;;1.30;;
7471;SDS011;3777;48.722;8.110;2022-09-09T12:27:02;4.53;;;1.30;;
7471;SDS011;3777;48.722;8.110;2022-09-09T12:29:36;3.00;;;1.30;;
7471;SDS011;3777;48.722;8.110;2022-09-09T12:32:11;3.33;;;1.30;;
7471;SDS011;3777;48.722;8.110;2022-09-09T12:34:42;3.28;;;1.10;;
7471;SDS011;3777;48.722;8.110;2022-09-09T12:37:16;3.40;;;1.20;;
7471;SDS011;3777;48.722;8.110;2022-09-09T12:39:53;3.97;;;1.10;;
7471;SDS011;3777;48.722;8.110;2022-09-09T12:42:22;2.75;;;1.40;;
7471;SDS011;3777;48.722;8.110;2022-09-09T12:44:54;4.70;;;1.67;;
7471;SDS011;3777;48.722;8.110;2022-09-09T12:47:24;3.38;;;1.48;;
7471;SDS011;3777;48.722;8.110;2022-09-09T12:50:02;3.17;;;1.35;;
7471;SDS011;3777;48.722;8.110;2022-09-09T12:52:30;3.65;;;1.23;;
7471;SDS011;3777;48.722;8.110;2022-09-09T12:55:03;2.72;;;1.10;;
7471;SDS011;3777;48.722;8.110;2022-09-09T12:57:34;2.90;;;1.27;;
7471;SDS011;3777;48.722;8.110;2022-09-09T13:00:05;2.63;;;1.10;;
7471;SDS011;3777;48.722;8.110;2022-09-09T13:02:36;2.53;;;1.05;;
7471;SDS011;3777;48.722;8.110;2022-09-09T13:05:13;2.80;;;1.38;;
7471;SDS011;3777;48.722;8.110;2022-09-09T13:07:43;2.97;;;1.30;;
7471;SDS011;3777;48.722;8.110;2022-09-09T13:10:12;4.03;;;1.42;;
7471;SDS011;3777;48.722;8.110;2022-09-09T13:12:40;3.13;;;1.20;;
7471;SDS011;3777;48.722;8.110;2022-09-09T13:15:16;3.75;;;1.30;;
7471;SDS011;3777;48.722;8.110;2022-09-09T13:17:54;2.63;;;1.30;;
7471;SDS011;3777;48.722;8.110;2022-09-09T13:20:23;4.38;;;1.27;;
7471;SDS011;3777;48.722;8.110;2022-09-09T13:22:51;3.53;;;1.30;;
7471;SDS011;3777;48.722;8.110;2022-09-09T13:25:23;7.00;;;1.40;;
7471;SDS011;3777;48.722;8.110;2022-09-09T13:27:53;3.67;;;1.35;;
7471;SDS011;3777;48.722;8.110;2022-09-09T13:30:28;6.65;;;1.63;;
7471;SDS011;3777;48.722;8.110;2022-09-09T13:33:04;3.75;;;1.38;;
7471;SDS011;3777;48.722;8.110;2022-09-09T13:35:33;3.00;;;1.33;;
7471;SDS011;3777;48.722;8.110;2022-09-09T13:38:06;3.38;;;1.27;;
7471;SDS011;3777;48.722;8.110;2022-09-09T13:40:37;7.32;;;1.48;;
7471;SDS011;3777;48.722;8.110;2022-09-09T13:43:04;4.63;;;1.27;;
7471;SDS011;3777;48.722;8.110;2022-09-09T13:45:31;3.90;;;1.15;;
7471;SDS011;3777;48.722;8.110;2022-09-09T13:48:07;2.90;;;1.20;;
7471;SDS011;3777;48.722;8.110;2022-09-09T13:50:37;4.43;;;1.33;;
7471;SDS011;3777;48.722;8.110;2022-09-09T13:53:04;5.50;;;1.60;;
7471;SDS011;3777;48.722;8.110;2022-09-09T13:55:30;3.20;;;1.30;;
7471;SDS011;3777;48.722;8.110;2022-09-09T13:57:59;2.72;;;1.30;;
7471;SDS011;3777;48.722;8.110;2022-09-09T14:00:28;3.13;;;1.17;;
7471;SDS011;3777;48.722;8.110;2022-09-09T14:02:56;2.67;;;1.00;;
7471;SDS011;3777;48.722;8.110;2022-09-09T14:05:23;4.30;;;1.17;;
7471;SDS011;3777;48.722;8.110;2022-09-09T14:07:50;3.97;;;1.23;;
7471;SDS011;3777;48.722;8.110;2022-09-09T14:10:17;3.50;;;1.20;;
7471;SDS011;3777;48.722;8.110;2022-09-09T14:12:44;4.78;;;1.30;;
7471;SDS011;3777;48.722;8.110;2022-09-09T14:15:13;2.10;;;1.20;;
7471;SDS011;3777;48.722;8.110;2022-09-09T14:17:41;2.67;;;1.13;;
7471;SDS011;3777;48.722;8.110;2022-09-09T14:20:08;3.03;;;1.10;;
7471;SDS011;3777;48.722;8.110;2022-09-09T14:22:37;2.33;;;1.10;;
7471;SDS011;3777;48.722;8.110;2022-09-09T14:25:06;2.40;;;0.90;;
7471;SDS011;3777;48.722;8.110;2022-09-09T14:27:33;5.32;;;1.10;;
7471;SDS011;3777;48.722;8.110;2022-09-09T14:30:00;1.85;;;1.00;;
7471;SDS011;3777;48.722;8.110;2022-09-09T14:32:29;2.13;;;0.98;;
7471;SDS011;3777;48.722;8.110;2022-09-09T14:34:56;3.15;;;1.10;;
7471;SDS011;3777;48.722;8.110;2022-09-09T14:37:23;5.50;;;1.35;;
7471;SDS011;3777;48.722;8.110;2022-09-09T14:39:50;8.68;;;1.63;;
7471;SDS011;3777;48.722;8.110;2022-09-09T14:42:18;12.63;;;2.67;;
7471;SDS011;3777;48.722;8.110;2022-09-09T14:44:46;5.15;;;1.55;;
7471;SDS011;3777;48.722;8.110;2022-09-09T14:47:13;3.70;;;1.50;;
7471;SDS011;3777;48.722;8.110;2022-09-09T14:49:42;6.07;;;1.40;;
7471;SDS011;3777;48.722;8.110;2022-09-09T14:52:09;10.25;;;2.00;;
7471;SDS011;3777;48.722;8.110;2022-09-09T14:54:36;5.75;;;1.55;;
7471;SDS011;3777;48.722;8.110;2022-09-09T14:57:03;5.55;;;1.50;;
7471;SDS011;3777;48.722;8.110;2022-09-09T14:59:30;6.40;;;1.80;;
7471;SDS011;3777;48.722;8.110;2022-09-09T15:01:57;4.43;;;1.27;;
7471;SDS011;3777;48.722;8.110;2022-09-09T15:04:29;3.30;;;1.13;;
7471;SDS011;3777;48.722;8.110;2022-09-09T15:06:57;3.60;;;1.03;;
7471;SDS011;3777;48.722;8.110;2022-09-09T15:09:24;4.77;;;1.23;;
7471;SDS011;3777;48.722;8.110;2022-09-09T15:11:51;2.07;;;1.10;;
7471;SDS011;3777;48.722;8.110;2022-09-09T15:14:18;2.80;;;1.40;;
7471;SDS011;3777;48.722;8.110;2022-09-09T15:16:45;3.77;;;1.20;;
7471;SDS011;3777;48.722;8.110;2022-09-09T15:19:12;4.03;;;1.20;;
7471;SDS011;3777;48.722;8.110;2022-09-09T15:21:39;3.70;;;1.30;;
7471;SDS011;3777;48.722;8.110;2022-09-09T15:24:08;4.20;;;1.40;;
7471;SDS011;3777;48.722;8.110;2022-09-09T15:26:35;6.70;;;1.63;;
7471;SDS011;3777;48.722;8.110;2022-09-09T15:29:03;5.70;;;1.40;;
7471;SDS011;3777;48.722;8.110;2022-09-09T15:31:32;3.37;;;1.40;;
7471;SDS011;3777;48.722;8.110;2022-09-09T15:33:59;4.77;;;1.67;;
7471;SDS011;3777;48.722;8.110;2022-09-09T15:36:27;5.27;;;1.53;;
7471;SDS011;3777;48.722;8.110;2022-09-09T15:38:57;3.80;;;1.50;;
7471;SDS011;3777;48.722;8.110;2022-09-09T15:41:25;3.77;;;1.40;;
7471;SDS011;3777;48.722;8.110;2022-09-09T15:43:54;4.13;;;1.60;;
7471;SDS011;3777;48.722;8.110;2022-09-09T15:46:26;7.80;;;1.40;;
7471;SDS011;3777;48.722;8.110;2022-09-09T15:48:56;2.33;;;1.20;;
7471;SDS011;3777;48.722;8.110;2022-09-09T15:51:24;2.80;;;1.40;;